Time;durP1;ratioP1;P1;durP2;ratioP2;P2;SDS_P1;SDS_P2;PMS_P1;PMS_P2;Temp;Humidity;BMP_temperature;BMP_pressure;BME280_temperature;BME280_humidity;BME280_pressure;Samples;Min_cycle;Max_cycle;Signal;HPM_P1;HPM_P2
2024/05/10 00:00:36;;;;;;;13.60;8.40;;;;;;;5.87;100.00;99801.60;106073;1256;66132;-87
2024/05/10 00:03:31;;;;;;;18.50;8.30;;;;;;;5.85;100.00;99797.84;106099;1255;65271;-84
2024/05/10 00:06:01;;;;;;;18.90;9.50;;;;;;;5.83;100.00;99794.41;106042;1257;66809;-88
2024/05/10 00:08:29;;;;;;;19.70;8.80;;;;;;;5.81;100.00;99795.39;106125;1256;61333;-84
2024/05/10 00:10:59;;;;;;;17.10;8.50;;;;;;;5.79;100.00;99797.11;106075;1259;61261;-84
2024/05/10 00:13:28;;;;;;;16.70;8.80;;;;;;;5.76;100.00;99801.09;106054;1256;64985;-85
2024/05/10 00:15:56;;;;;;;17.80;9.10;;;;;;;5.75;100.00;99796.41;106099;1255;62991;-84
2024/05/10 00:18:24;;;;;;;16.10;8.10;;;;;;;5.74;100.00;99795.77;106201;1255;64106;-84
2024/05/10 00:20:53;;;;;;;16.50;8.50;;;;;;;5.72;100.00;99795.48;106112;1257;61353;-85
2024/05/10 00:23:21;;;;;;;17.40;9.50;;;;;;;5.70;100.00;99795.41;106235;1257;61373;-84
2024/05/10 00:25:50;;;;;;;16.40;9.00;;;;;;;5.66;100.00;99790.83;106058;1259;66130;-84
2024/05/10 00:28:18;;;;;;;16.60;8.80;;;;;;;5.63;100.00;99787.27;106030;1257;62273;-86
2024/05/10 00:30:48;;;;;;;14.40;8.10;;;;;;;5.59;100.00;99787.60;106232;1258;62969;-84
2024/05/10 00:33:16;;;;;;;20.60;9.50;;;;;;;5.57;100.00;99788.09;106652;1255;61296;-83
2024/05/10 00:35:46;;;;;;;15.00;8.80;;;;;;;5.54;100.00;99786.62;106230;1256;61188;-84
2024/05/10 00:38:14;;;;;;;14.60;8.60;;;;;;;5.51;100.00;99783.95;106150;1256;67224;-85
2024/05/10 00:40:43;;;;;;;14.80;9.10;;;;;;;5.48;100.00;99778.64;106206;1257;64162;-85
2024/05/10 00:43:12;;;;;;;18.50;9.30;;;;;;;5.46;100.00;99775.55;106194;1258;64309;-85
2024/05/10 00:45:40;;;;;;;16.10;9.10;;;;;;;5.44;100.00;99773.17;105961;1256;61377;-85
2024/05/10 00:48:11;;;;;;;20.50;9.20;;;;;;;5.42;100.00;99772.23;105919;1257;61325;-86
2024/05/10 00:50:42;;;;;;;16.40;8.80;;;;;;;5.40;100.00;99772.49;105993;1259;66131;-86
2024/05/10 00:53:12;;;;;;;20.20;9.60;;;;;;;5.39;100.00;99775.52;106459;1259;63258;-88
2024/05/10 00:55:41;;;;;;;16.90;9.20;;;;;;;5.38;100.00;99775.58;106167;1256;64148;-85
2024/05/10 00:58:13;;;;;;;20.90;9.00;;;;;;;5.36;100.00;99773.89;106435;1257;61323;-84
2024/05/10 01:00:42;;;;;;;22.60;10.10;;;;;;;5.35;100.00;99774.33;106153;1259;61269;-84
2024/05/10 01:03:12;;;;;;;17.50;9.30;;;;;;;5.33;100.00;99774.22;106057;1260;67206;-85
2024/05/10 01:05:42;;;;;;;14.80;8.70;;;;;;;5.33;100.00;99776.33;105931;1256;61688;-85
2024/05/10 01:08:10;;;;;;;14.80;9.30;;;;;;;5.33;100.00;99773.52;106030;1256;65141;-85
2024/05/10 01:10:39;;;;;;;16.70;9.10;;;;;;;5.31;100.00;99775.02;106143;1259;61315;-84
2024/05/10 01:13:07;;;;;;;18.60;9.80;;;;;;;5.29;100.00;99772.30;106152;1256;61307;-84
2024/05/10 01:15:38;;;;;;;15.90;9.20;;;;;;;5.27;100.00;99768.70;106099;1257;67029;-84
2024/05/10 01:18:07;;;;;;;15.50;9.30;;;;;;;5.25;100.00;99769.14;106288;1256;63576;-85
2024/05/10 01:20:37;;;;;;;18.50;9.80;;;;;;;5.24;100.00;99767.08;105993;1256;64034;-85
2024/05/10 01:23:14;;;;;;;16.60;9.00;;;;;;;5.22;100.00;99765.80;106039;1256;61323;-84
2024/05/10 01:25:46;;;;;;;15.50;9.10;;;;;;;5.18;100.00;99769.11;106053;1256;61244;-85
2024/05/10 01:28:19;;;;;;;15.00;8.80;;;;;;;5.15;100.00;99766.95;106055;1260;66073;-84
2024/05/10 01:30:48;;;;;;;16.10;9.20;;;;;;;5.12;100.00;99767.26;107558;1256;63433;-85
2024/05/10 01:33:17;;;;;;;18.20;9.80;;;;;;;5.11;100.00;99766.75;107881;1257;64060;-86
2024/05/10 01:35:46;;;;;;;18.10;9.40;;;;;;;5.11;100.00;99762.05;107957;1257;60484;-85
2024/05/10 01:38:14;;;;;;;15.20;9.00;;;;;;;5.09;100.00;99760.54;108250;1255;61135;-85
2024/05/10 01:40:42;;;;;;;17.90;9.30;;;;;;;5.07;100.00;99760.29;108733;1256;66033;-85
2024/05/10 01:43:13;;;;;;;18.10;9.50;;;;;;;5.05;100.00;99760.38;108756;1256;61699;-86
2024/05/10 01:45:49;;;;;;;15.90;9.10;;;;;;;5.03;100.00;99757.67;108227;1257;64222;-85
2024/05/10 01:48:17;;;;;;;18.20;9.30;;;;;;;5.01;100.00;99754.77;106028;1256;61467;-86
2024/05/10 01:50:46;;;;;;;16.50;9.10;;;;;;;4.99;100.00;99752.90;106185;1257;61259;-88
2024/05/10 01:53:14;;;;;;;18.60;9.60;;;;;;;4.96;100.00;99750.38;106256;1259;67270;-85
2024/05/10 01:55:42;;;;;;;15.10;8.80;;;;;;;4.93;100.00;99750.88;106295;1259;62199;-86
2024/05/10 01:58:10;;;;;;;16.00;9.40;;;;;;;4.91;100.00;99752.56;106293;1256;65157;-85
2024/05/10 02:00:38;;;;;;;17.20;9.90;;;;;;;4.89;100.00;99753.52;106191;1256;61446;-85
2024/05/10 02:03:14;;;;;;;17.20;9.40;;;;;;;4.86;100.00;99753.50;106196;1256;61395;-84
2024/05/10 02:05:46;;;;;;;15.60;9.20;;;;;;;4.83;100.00;99749.92;106380;1256;67213;-84
2024/05/10 02:08:14;;;;;;;20.00;9.90;;;;;;;4.80;100.00;99750.42;106109;1258;63451;-84
2024/05/10 02:10:42;;;;;;;18.80;9.40;;;;;;;4.78;100.00;99750.15;106232;1257;65038;-84
2024/05/10 02:13:15;;;;;;;17.60;9.00;;;;;;;4.76;100.00;99746.03;106226;1256;61323;-85
2024/05/10 02:15:48;;;;;;;18.00;9.70;;;;;;;4.73;100.00;99743.35;106075;1256;61360;-85
2024/05/10 02:18:17;;;;;;;18.40;9.50;;;;;;;4.69;100.00;99744.20;106066;1259;66736;-85
2024/05/10 02:20:46;;;;;;;19.30;10.30;;;;;;;4.66;100.00;99739.92;106153;1256;63621;-84
2024/05/10 02:23:14;;;;;;;17.10;9.50;;;;;;;4.63;100.00;99736.20;106185;1257;63982;-86
2024/05/10 02:25:42;;;;;;;17.70;9.00;;;;;;;4.62;100.00;99731.67;106188;1259;61346;-87
2024/05/10 02:28:10;;;;;;;17.00;9.20;;;;;;;4.60;100.00;99728.44;106155;1256;61242;-88
2024/05/10 02:30:40;;;;;;;21.60;10.10;;;;;;;4.57;100.00;99729.25;106417;1256;64807;-85
2024/05/10 02:33:14;;;;;;;18.70;10.10;;;;;;;4.54;100.00;99733.44;105939;1257;64667;-85
2024/05/10 02:35:43;;;;;;;17.60;9.70;;;;;;;4.52;100.00;99733.73;106039;1256;64074;-85
2024/05/10 02:38:13;;;;;;;18.30;9.50;;;;;;;4.48;100.00;99733.88;106003;1256;61343;-85
2024/05/10 02:40:41;;;;;;;17.50;10.40;;;;;;;4.46;100.00;99734.84;106388;1257;61153;-84
2024/05/10 02:43:12;;;;;;;17.50;9.80;;;;;;;4.45;100.00;99735.79;106142;1259;66142;-85
2024/05/10 02:45:40;;;;;;;14.10;8.60;;;;;;;4.43;100.00;99734.61;106050;1257;63322;-85
2024/05/10 02:48:09;;;;;;;18.20;9.70;;;;;;;4.43;100.00;99734.47;106000;1256;64138;-86
2024/05/10 02:50:37;;;;;;;17.10;10.10;;;;;;;4.41;100.00;99737.36;105973;1257;61251;-84
2024/05/10 02:53:10;;;;;;;18.10;8.80;;;;;;;4.37;100.00;99736.46;106146;1256;61273;-84
2024/05/10 02:55:43;;;;;;;18.20;9.70;;;;;;;4.35;100.00;99738.67;105920;1257;67180;-85
2024/05/10 02:58:15;;;;;;;16.50;9.00;;;;;;;4.34;100.00;99737.17;106066;1256;62705;-84
2024/05/10 03:00:44;;;;;;;19.40;9.40;;;;;;;4.32;100.00;99739.02;105996;1256;63028;-85
2024/05/10 03:03:13;;;;;;;17.60;9.60;;;;;;;4.29;100.00;99738.41;106106;1257;61273;-85
2024/05/10 03:05:45;;;;;;;18.70;9.40;;;;;;;4.27;100.00;99739.56;106067;1256;61264;-86
2024/05/10 03:08:15;;;;;;;16.90;9.90;;;;;;;4.25;100.00;99740.67;106139;1259;64856;-85
2024/05/10 03:10:44;;;;;;;22.50;9.40;;;;;;;4.24;100.00;99741.60;106176;1257;63341;-84
2024/05/10 03:13:13;;;;;;;18.20;10.10;;;;;;;4.24;100.00;99743.73;106224;1256;63926;-85
2024/05/10 03:15:42;;;;;;;17.20;9.70;;;;;;;4.24;100.00;99745.84;106115;1256;61209;-85
2024/05/10 03:18:10;;;;;;;17.90;9.50;;;;;;;4.24;100.00;99748.30;105980;1256;61351;-85
2024/05/10 03:20:39;;;;;;;15.60;8.90;;;;;;;4.24;100.00;99745.11;106012;1256;67057;-85
2024/05/10 03:23:09;;;;;;;17.40;9.30;;;;;;;4.24;100.00;99747.06;106094;1259;64312;-83
2024/05/10 03:25:41;;;;;;;20.50;11.30;;;;;;;4.24;100.00;99746.52;106202;1257;64734;-85
2024/05/10 03:28:10;;;;;;;16.90;10.20;;;;;;;4.27;100.00;99748.54;106394;1259;61272;-85
2024/05/10 03:30:39;;;;;;;15.80;9.20;;;;;;;4.28;100.00;99747.79;106073;1257;61238;-85
2024/05/10 03:33:12;;;;;;;15.50;9.20;;;;;;;4.29;100.00;99746.31;105899;1257;66064;-85
2024/05/10 03:35:42;;;;;;;17.00;9.70;;;;;;;4.31;100.00;99744.14;106278;1257;62691;-87
2024/05/10 03:38:11;;;;;;;16.00;9.40;;;;;;;4.34;100.00;99743.14;106106;1257;63187;-85
2024/05/10 03:40:42;;;;;;;18.20;9.10;;;;;;;4.36;100.00;99747.09;105988;1257;61275;-85
2024/05/10 03:43:13;;;;;;;17.10;9.50;;;;;;;4.40;100.00;99747.63;106152;1259;61362;-84
2024/05/10 03:45:42;;;;;;;16.80;8.70;;;;;;;4.43;100.00;99747.67;106099;1257;66140;-85
2024/05/10 03:48:10;;;;;;;17.20;9.30;;;;;;;4.45;100.00;99749.01;106078;1257;63442;-85
2024/05/10 03:50:38;;;;;;;14.40;8.80;;;;;;;4.48;100.00;99749.56;106325;1257;64106;-84
2024/05/10 03:53:08;;;;;;;17.20;9.40;;;;;;;4.52;100.00;99750.23;106186;1257;61250;-84
2024/05/10 03:55:38;;;;;;;18.30;9.80;;;;;;;4.59;100.00;99750.13;105899;1262;61265;-86
2024/05/10 03:58:08;;;;;;;21.70;10.40;;;;;;;4.66;100.00;99751.40;106062;1256;66770;-84
2024/05/10 04:00:36;;;;;;;17.90;9.70;;;;;;;4.74;100.00;99751.92;107120;1257;64212;-86
2024/05/10 04:03:15;;;;;;;21.30;10.00;;;;;;;4.82;100.00;99749.09;106475;1260;65050;-84
2024/05/10 04:05:46;;;;;;;19.40;10.20;;;;;;;4.90;100.00;99748.55;108032;1256;59159;-84
2024/05/10 04:08:17;;;;;;;17.20;10.50;;;;;;;5.00;100.00;99747.04;106834;1256;61154;-86
2024/05/10 04:10:45;;;;;;;17.50;9.80;;;;;;;5.11;100.00;99746.71;106599;1257;65865;-85
2024/05/10 04:13:19;;;;;;;16.40;9.90;;;;;;;5.22;100.00;99745.69;106518;1262;62348;-83
2024/05/10 04:15:50;;;;;;;17.30;10.60;;;;;;;5.35;100.00;99745.77;106766;1257;64849;-86
2024/05/10 04:18:20;;;;;;;18.40;10.50;;;;;;;5.48;100.00;99746.04;106007;1257;62103;-86
2024/05/10 04:20:49;;;;;;;17.70;9.70;;;;;;;5.62;100.00;99744.99;105993;1260;62044;-85
2024/05/10 04:23:18;;;;;;;17.30;9.30;;;;;;;5.77;100.00;99744.27;106055;1257;65895;-85
2024/05/10 04:25:46;;;;;;;18.80;10.30;;;;;;;5.92;100.00;99743.52;106114;1261;64391;-85
2024/05/10 04:28:14;;;;;;;18.30;10.20;;;;;;;6.10;100.00;99739.64;106200;1260;64159;-85
2024/05/10 04:30:42;;;;;;;23.30;11.30;;;;;;;6.28;100.00;99739.25;106110;1257;62166;-86
2024/05/10 04:33:11;;;;;;;19.60;10.30;;;;;;;6.47;100.00;99736.66;106208;1257;61974;-86
2024/05/10 04:35:40;;;;;;;18.70;10.50;;;;;;;6.69;100.00;99739.60;106044;1257;67914;-83
2024/05/10 04:38:09;;;;;;;18.00;10.20;;;;;;;6.91;100.00;99741.42;105929;1257;63359;-85
2024/05/10 04:40:37;;;;;;;20.10;9.80;;;;;;;7.12;100.00;99737.77;106115;1257;64327;-84
2024/05/10 04:43:12;;;;;;;18.50;11.20;;;;;;;7.35;100.00;99740.02;106083;1257;62015;-83
2024/05/10 04:45:44;;;;;;;19.50;10.10;;;;;;;7.60;100.00;99740.60;106044;1257;62051;-86
2024/05/10 04:48:13;;;;;;;16.30;9.50;;;;;;;7.85;100.00;99736.52;105981;1257;67926;-85
2024/05/10 04:50:42;;;;;;;16.70;8.50;;;;;;;8.09;100.00;99739.16;106060;1257;63433;-85
2024/05/10 04:53:11;;;;;;;16.90;9.70;;;;;;;8.33;100.00;99738.30;105978;1257;64184;-85
2024/05/10 04:55:40;;;;;;;17.70;9.40;;;;;;;8.58;100.00;99734.84;105893;1257;62175;-85
2024/05/10 04:58:08;;;;;;;15.10;8.70;;;;;;;8.84;100.00;99731.33;106158;1256;62105;-85
2024/05/10 05:00:36;;;;;;;13.70;8.00;;;;;;;9.08;100.00;99727.88;105814;1257;68418;-83
2024/05/10 05:03:10;;;;;;;16.50;9.20;;;;;;;9.33;100.00;99728.02;106044;1262;63382;-84
2024/05/10 05:05:43;;;;;;;19.80;8.60;;;;;;;9.59;100.00;99728.11;106085;1257;65213;-85
2024/05/10 05:08:17;;;;;;;24.80;9.20;;;;;;;9.83;100.00;99724.55;106092;1257;62160;-84
2024/05/10 05:10:48;;;;;;;16.20;8.80;;;;;;;10.09;100.00;99723.41;106025;1257;62086;-83
2024/05/10 05:13:19;;;;;;;17.00;9.30;;;;;;;10.34;100.00;99719.80;106171;1257;65271;-85
2024/05/10 05:15:48;;;;;;;14.60;7.80;;;;;;;10.59;100.00;99718.96;106066;1257;68491;-83
2024/05/10 05:18:17;;;;;;;12.90;7.10;;;;;;;10.84;100.00;99719.16;106098;1261;65342;-84
2024/05/10 05:20:46;;;;;;;15.30;7.50;;;;;;;11.09;100.00;99717.70;106121;1257;62206;-83
2024/05/10 05:23:14;;;;;;;11.80;7.80;;;;;;;11.34;100.00;99720.23;106045;1257;62045;-84
2024/05/10 05:25:42;;;;;;;12.50;7.20;;;;;;;11.56;100.00;99719.48;105876;1257;66713;-84
2024/05/10 05:28:12;;;;;;;13.90;7.50;;;;;;;11.80;100.00;99717.69;105958;1260;63124;-84
2024/05/10 05:30:41;;;;;;;16.30;7.50;;;;;;;12.04;100.00;99719.65;105896;1262;64206;-85
2024/05/10 05:33:12;;;;;;;11.10;6.90;;;;;;;12.26;100.00;99722.09;105928;1260;62029;-84
2024/05/10 05:35:43;;;;;;;12.70;6.40;;;;;;;12.46;100.00;99718.78;105889;1262;62091;-84
2024/05/10 05:38:15;;;;;;;9.50;6.40;;;;;;;12.67;100.00;99712.52;106001;1261;68080;-84
2024/05/10 05:40:44;;;;;;;11.40;6.60;;;;;;;12.88;100.00;99713.00;105946;1260;64497;-86
2024/05/10 05:43:13;;;;;;;14.70;6.80;;;;;;;13.09;100.00;99710.47;106053;1260;63825;-85
2024/05/10 05:45:41;;;;;;;10.70;6.80;;;;;;;13.27;100.00;99708.87;106037;1257;62060;-85
2024/05/10 05:48:10;;;;;;;13.40;7.40;;;;;;;13.47;100.00;99711.14;106114;1257;62042;-85
2024/05/10 05:50:38;;;;;;;14.30;7.00;;;;;;;13.66;100.00;99712.10;106138;1262;67975;-85
2024/05/10 05:53:10;;;;;;;16.60;7.30;;;;;;;13.87;100.00;99708.24;106240;1262;63068;-85
2024/05/10 05:55:42;;;;;;;13.30;7.50;;;;;;;14.06;100.00;99707.48;106130;1262;66628;-85
2024/05/10 05:58:12;;;;;;;15.20;7.70;;;;;;;14.25;100.00;99706.25;106200;1259;62155;-85
2024/05/10 06:00:42;;;;;;;11.60;7.10;;;;;;;14.46;100.00;99703.09;106117;1259;62158;-84
2024/05/10 06:03:11;;;;;;;13.40;7.60;;;;;;;14.67;100.00;99706.95;105929;1259;67597;-84
2024/05/10 06:05:43;;;;;;;13.20;7.50;;;;;;;14.87;100.00;99705.99;105995;1260;64287;-84
2024/05/10 06:08:12;;;;;;;13.40;8.10;;;;;;;15.06;100.00;99706.26;105996;1262;65235;-83
2024/05/10 06:10:41;;;;;;;16.10;7.80;;;;;;;15.30;100.00;99707.91;106073;1260;62045;-83
2024/05/10 06:13:10;;;;;;;13.90;8.00;;;;;;;15.52;100.00;99704.85;106078;1257;62087;-86
2024/05/10 06:15:38;;;;;;;14.30;7.90;;;;;;;15.72;100.00;99704.52;106231;1261;67947;-85
2024/05/10 06:18:07;;;;;;;15.10;7.80;;;;;;;15.85;100.00;99702.92;106197;1257;64435;-89
2024/05/10 06:20:35;;;;;;;14.80;7.80;;;;;;;16.00;100.00;99703.21;106129;1257;63712;-89
2024/05/10 06:23:06;;;;;;;14.10;7.70;;;;;;;16.17;100.00;99702.66;106108;1257;62165;-89
2024/05/10 06:25:34;;;;;;;19.60;8.10;;;;;;;16.36;100.00;99699.14;106074;1258;62016;-84
2024/05/10 06:28:04;;;;;;;13.70;7.60;;;;;;;16.49;100.00;99694.06;106097;1260;76201;-88
2024/05/10 06:30:33;;;;;;;16.20;8.10;;;;;;;16.59;100.00;99694.98;106166;1258;63326;-90
2024/05/10 06:33:08;;;;;;;12.20;7.70;;;;;;;16.60;100.00;99693.05;105994;1262;62826;-88
2024/05/10 06:35:41;;;;;;;17.00;8.30;;;;;;;16.63;100.00;99686.67;106085;1257;62166;-84
2024/05/10 06:38:28;;;;;;;14.30;7.60;;;;;;;16.64;100.00;99686.58;106120;1257;62054;-87
2024/05/10 06:40:57;;;;;;;11.40;7.20;;;;;;;16.72;100.00;99687.24;106202;1257;65572;-88
2024/05/10 06:43:27;;;;;;;13.70;7.40;;;;;;;16.84;100.00;99683.39;106386;1257;64299;-90
2024/05/10 06:45:57;;;;;;;13.00;7.10;;;;;;;16.95;100.00;99680.64;105866;1260;62447;-89
2024/05/10 06:48:25;;;;;;;14.00;7.70;;;;;;;17.02;100.00;99679.81;105984;1258;62167;-87
2024/05/10 06:50:56;;;;;;;12.70;7.60;;;;;;;17.17;100.00;99679.36;106066;1261;62047;-91
2024/05/10 06:53:26;;;;;;;16.40;8.20;;;;;;;17.34;100.00;99681.60;105988;1264;65865;-88
2024/05/10 06:55:58;;;;;;;11.00;7.20;;;;;;;17.54;100.00;99676.90;106162;1257;64123;-87
2024/05/10 06:58:28;;;;;;;14.20;6.80;;;;;;;17.71;100.00;99678.34;105990;1257;64969;-87
2024/05/10 07:00:57;;;;;;;10.90;6.90;;;;;;;17.77;100.00;99677.05;106106;1262;62047;-89
2024/05/10 07:03:26;;;;;;;13.40;7.30;;;;;;;17.92;100.00;99677.04;106142;1262;62065;-86
2024/05/10 07:05:55;;;;;;;14.70;7.30;;;;;;;18.04;100.00;99676.98;106108;1257;66891;-89
2024/05/10 07:08:23;;;;;;;14.70;7.70;;;;;;;18.07;100.00;99678.86;106023;1262;63347;-84
2024/05/10 07:10:53;;;;;;;15.90;8.80;;;;;;;18.07;100.00;99678.52;105849;1257;64117;-85
2024/05/10 07:13:22;;;;;;;11.70;7.20;;;;;;;18.15;100.00;99676.69;105948;1262;62019;-88
2024/05/10 07:15:54;;;;;;;12.70;7.60;;;;;;;18.25;100.00;99674.73;106210;1257;61946;-88
2024/05/10 07:18:22;;;;;;;14.30;7.70;;;;;;;18.35;100.00;99674.96;105963;1257;67903;-86
2024/05/10 07:20:51;;;;;;;17.10;7.70;;;;;;;18.47;100.00;99676.21;106102;1261;66091;-88
2024/05/10 07:23:20;;;;;;;19.90;7.80;;;;;;;18.43;100.00;99679.38;106164;1257;65158;-89
2024/05/10 07:25:47;;;;;;;16.10;8.70;;;;;;;18.40;100.00;99677.16;106074;1257;62204;-88
2024/05/10 07:28:15;;;;;;;13.60;7.10;;;;;;;18.51;100.00;99677.23;106113;1261;62087;-87
2024/05/10 07:30:44;;;;;;;14.00;8.30;;;;;;;18.68;100.00;99678.05;106110;1260;68009;-90
2024/05/10 07:33:16;;;;;;;14.50;8.30;;;;;;;18.71;100.00;99677.73;105989;1262;63792;-86
2024/05/10 07:35:46;;;;;;;21.90;8.20;;;;;;;18.87;100.00;99675.66;105951;1262;63885;-84
2024/05/10 07:38:15;;;;;;;17.80;8.40;;;;;;;19.02;100.00;99676.48;106140;1257;60305;-86
2024/05/10 07:40:43;;;;;;;12.30;7.90;;;;;;;19.06;100.00;99676.41;106028;1261;62069;-82
2024/05/10 07:43:14;;;;;;;12.30;7.70;;;;;;;19.17;100.00;99674.29;106049;1262;68276;-88
2024/05/10 07:45:43;;;;;;;13.40;7.70;;;;;;;19.21;100.00;99678.42;106205;1257;63272;-85
2024/05/10 07:48:14;;;;;;;11.10;6.80;;;;;;;19.19;100.00;99678.49;105977;1262;63969;-84
2024/05/10 07:50:45;;;;;;;17.90;8.10;;;;;;;19.20;100.00;99679.10;106213;1258;62338;-88
2024/05/10 07:53:15;;;;;;;14.10;8.10;;;;;;;19.28;100.00;99678.41;105963;1259;61939;-89
2024/05/10 07:55:43;;;;;;;14.00;6.70;;;;;;;19.34;100.00;99679.96;106280;1262;66848;-84
2024/05/10 07:58:11;;;;;;;14.60;7.30;;;;;;;19.42;100.00;99681.44;106092;1257;64510;-84
2024/05/10 08:00:39;;;;;;;12.30;7.40;;;;;;;19.55;100.00;99682.69;106155;1257;65220;-82
2024/05/10 08:03:11;;;;;;;13.50;6.30;;;;;;;19.69;100.00;99682.67;106281;1260;62187;-85
2024/05/10 08:05:40;;;;;;;11.60;6.30;;;;;;;19.83;100.00;99686.42;107323;1261;61992;-89
2024/05/10 08:08:09;;;;;;;11.60;5.90;;;;;;;19.91;100.00;99690.77;106528;1260;65952;-86
2024/05/10 08:10:37;;;;;;;11.20;6.60;;;;;;;19.99;100.00;99691.38;106152;1257;63536;-83
2024/05/10 08:13:13;;;;;;;15.40;6.60;;;;;;;20.15;100.00;99693.30;106085;1262;65049;-89
2024/05/10 08:15:43;;;;;;;9.40;5.80;;;;;;;20.18;100.00;99690.24;105939;1262;62096;-86
2024/05/10 08:18:12;;;;;;;10.20;5.40;;;;;;;20.22;100.00;99688.09;106035;1257;62019;-80
2024/05/10 08:20:41;;;;;;;12.90;5.50;;;;;;;20.30;99.03;99689.61;106162;1261;67897;-88
2024/05/10 08:23:10;;;;;;;9.30;5.50;;;;;;;20.42;97.99;99688.15;106141;1261;61932;-82
2024/05/10 08:25:38;;;;;;;12.00;6.00;;;;;;;20.54;97.59;99687.98;106043;1261;65443;-82
2024/05/10 08:28:08;;;;;;;14.80;7.00;;;;;;;20.63;98.43;99683.19;105983;1262;62250;-82
2024/05/10 08:30:36;;;;;;;13.50;6.70;;;;;;;20.67;97.38;99685.58;106095;1261;62067;-81
2024/05/10 08:33:15;;;;;;;10.40;6.10;;;;;;;20.74;96.34;99684.27;106180;1263;66774;-86
2024/05/10 08:35:44;;;;;;;11.40;5.80;;;;;;;20.72;90.88;99680.39;106511;1259;62125;-85
2024/05/10 08:38:22;;;;;;;8.40;5.80;;;;;;;20.66;91.15;99679.91;106160;1265;62881;-82
2024/05/10 08:40:50;;;;;;;12.00;7.10;;;;;;;20.66;91.59;99681.04;106159;1257;62170;-84
2024/05/10 08:43:19;;;;;;;10.00;5.60;;;;;;;20.67;89.80;99678.70;106214;1258;61510;-83
2024/05/10 08:45:48;;;;;;;11.80;6.40;;;;;;;20.78;91.62;99681.32;106125;1257;67008;-80
2024/05/10 08:48:18;;;;;;;11.00;6.40;;;;;;;20.87;90.45;99677.27;106341;1259;63503;-85
2024/05/10 08:50:50;;;;;;;10.80;5.80;;;;;;;21.05;92.66;99679.49;106195;1262;64275;-86
2024/05/10 08:53:19;;;;;;;8.40;5.30;;;;;;;21.29;91.84;99678.17;106077;1257;62055;-85
2024/05/10 08:55:48;;;;;;;9.00;5.10;;;;;;;21.57;89.55;99678.11;106229;1260;62061;-85
2024/05/10 08:58:17;;;;;;;6.60;4.50;;;;;;;21.77;89.58;99678.12;106165;1257;65852;-85
2024/05/10 09:00:47;;;;;;;9.20;5.20;;;;;;;21.83;79.38;99675.58;106213;1260;63719;-84
2024/05/10 09:03:33;;;;;;;9.70;5.00;;;;;;;21.86;81.59;99670.86;106386;1259;65130;-88
2024/05/10 09:06:02;;;;;;;11.60;5.40;;;;;;;22.07;85.18;99664.73;106160;1257;62110;-89
2024/05/10 09:08:33;;;;;;;6.00;4.60;;;;;;;22.29;83.65;99661.34;106197;1256;62172;-90
2024/05/10 09:11:07;;;;;;;11.90;5.10;;;;;;;22.37;81.57;99661.89;106210;1257;66830;-87
2024/05/10 09:13:35;;;;;;;8.10;4.50;;;;;;;22.53;82.52;99656.06;106263;1259;62212;-85
2024/05/10 09:16:03;;;;;;;11.40;4.70;;;;;;;22.69;77.95;99652.98;106380;1257;65248;-88
2024/05/10 09:18:31;;;;;;;8.30;4.50;;;;;;;22.78;76.51;99654.99;106501;1257;62133;-85
2024/05/10 09:21:00;;;;;;;9.00;4.40;;;;;;;22.87;74.81;99652.08;106622;1257;62056;-84
2024/05/10 09:23:28;;;;;;;9.00;5.20;;;;;;;23.02;78.62;99646.11;106561;1256;67945;-83
2024/05/10 09:25:57;;;;;;;10.20;4.90;;;;;;;23.28;80.29;99644.65;106365;1258;63029;-87
2024/05/10 09:28:26;;;;;;;11.70;5.30;;;;;;;23.52;79.34;99647.39;106534;1257;65005;-88
2024/05/10 09:30:55;;;;;;;12.50;4.80;;;;;;;23.70;77.59;99647.63;106359;1257;62039;-86
2024/05/10 09:33:29;;;;;;;10.80;5.50;;;;;;;23.80;74.96;99648.95;106435;1258;62137;-82
2024/05/10 09:36:01;;;;;;;9.60;4.60;;;;;;;23.82;74.82;99645.89;106338;1259;67011;-88
2024/05/10 09:38:33;;;;;;;10.80;4.80;;;;;;;23.81;71.97;99644.56;106901;1257;64369;-84
2024/05/10 09:41:05;;;;;;;13.40;6.60;;;;;;;23.83;70.57;99643.38;107785;1260;69479;-84
2024/05/10 09:43:37;;;;;;;13.60;5.50;;;;;;;23.73;68.91;99643.27;108010;1260;61919;-83
2024/05/10 09:46:07;;;;;;;10.00;5.30;;;;;;;23.65;70.83;99640.73;106164;1257;60791;-84
2024/05/10 09:48:44;;;;;;;13.50;4.90;;;;;;;23.58;68.64;99642.27;106468;1257;65576;-82
2024/05/10 09:51:19;;;;;;;6.90;5.10;;;;;;;23.52;72.57;99641.63;106226;1259;63410;-84
2024/05/10 09:53:48;;;;;;;9.90;5.10;;;;;;;23.54;70.57;99639.34;106211;1258;65136;-81
2024/05/10 09:56:25;;;;;;;14.10;5.80;;;;;;;23.29;65.76;99637.70;106284;1259;62076;-85
2024/05/10 09:58:57;;;;;;;7.60;4.90;;;;;;;23.22;68.68;99639.34;106209;1259;62115;-82
2024/05/10 10:01:25;;;;;;;6.50;4.70;;;;;;;23.43;73.39;99636.46;106055;1261;65823;-84
2024/05/10 10:03:54;;;;;;;10.80;5.10;;;;;;;23.73;76.80;99639.07;106030;1258;64466;-82
2024/05/10 10:06:22;;;;;;;10.80;5.20;;;;;;;24.06;73.65;99635.13;106055;1262;62818;-83
2024/05/10 10:08:52;;;;;;;10.60;4.70;;;;;;;24.32;71.83;99631.24;106118;1258;62165;-86
2024/05/10 10:11:21;;;;;;;10.30;4.70;;;;;;;24.50;69.55;99625.74;106102;1263;62098;-82
2024/05/10 10:13:49;;;;;;;9.90;4.80;;;;;;;24.53;65.88;99626.19;106231;1259;67905;-83
2024/05/10 10:16:18;;;;;;;9.10;4.90;;;;;;;24.49;64.23;99625.95;106302;1256;64348;-87
2024/05/10 10:18:59;;;;;;;9.10;4.50;;;;;;;24.52;65.34;99621.93;106282;1262;65288;-82
2024/05/10 10:21:28;;;;;;;8.90;5.10;;;;;;;24.57;64.53;99626.49;106065;1262;62106;-88
2024/05/10 10:24:00;;;;;;;11.60;5.40;;;;;;;24.57;62.24;99627.64;106088;1260;61916;-87
2024/05/10 10:26:31;;;;;;;9.20;5.40;;;;;;;24.67;66.46;99624.01;106353;1257;66938;-86
2024/05/10 10:28:59;;;;;;;8.70;5.30;;;;;;;24.92;69.76;99621.21;106091;1260;64373;-83
2024/05/10 10:31:35;;;;;;;10.10;5.20;;;;;;;25.21;69.47;99620.52;106041;1259;65122;-87
2024/05/10 10:34:09;;;;;;;9.00;4.70;;;;;;;25.45;69.36;99621.00;106492;1260;62183;-82
2024/05/10 10:36:49;;;;;;;6.20;4.60;;;;;;;25.46;68.32;99621.01;107068;1260;61555;-84
2024/05/10 10:39:31;;;;;;;6.90;4.60;;;;;;;25.34;65.50;99622.81;106174;1260;68161;-84
2024/05/10 10:42:04;;;;;;;12.90;5.20;;;;;;;25.39;67.14;99619.85;106645;1263;68906;-85
2024/05/10 10:44:33;;;;;;;10.40;5.00;;;;;;;25.51;65.99;99618.04;106398;1258;161107;-82
2024/05/10 10:47:02;;;;;;;8.40;5.20;;;;;;;25.63;65.46;99618.11;106400;1262;62164;-83
2024/05/10 10:49:35;;;;;;;9.00;4.50;;;;;;;25.63;62.25;99619.99;106227;1270;61966;-84
2024/05/10 10:52:05;;;;;;;11.40;5.10;;;;;;;25.67;62.08;99621.60;106225;1260;67934;-86
2024/05/10 10:54:34;;;;;;;6.00;4.80;;;;;;;25.76;59.63;99621.48;106187;1257;64567;-86
2024/05/10 10:57:03;;;;;;;9.90;5.20;;;;;;;25.62;57.21;99618.44;106334;1258;65141;-86
2024/05/10 10:59:34;;;;;;;10.80;5.20;;;;;;;25.44;58.05;99619.39;107261;1258;62151;-85
2024/05/10 11:02:02;;;;;;;8.80;5.10;;;;;;;25.45;58.74;99621.46;108215;1257;62113;-87
2024/05/10 11:04:32;;;;;;;12.30;4.60;;;;;;;25.36;58.30;99621.05;106487;1258;68198;-84
2024/05/10 11:07:00;;;;;;;9.60;5.10;;;;;;;25.32;58.42;99619.20;107223;1260;63364;-83
2024/05/10 11:09:36;;;;;;;7.80;5.10;;;;;;;25.09;56.28;99618.63;106558;1258;64008;-84
2024/05/10 11:12:05;;;;;;;14.20;6.00;;;;;;;24.85;55.24;99614.34;106323;1260;62042;-83
2024/05/10 11:14:34;;;;;;;6.90;4.40;;;;;;;24.80;55.91;99611.95;106044;1261;62058;-84
2024/05/10 11:17:03;;;;;;;6.90;4.60;;;;;;;24.80;57.33;99614.55;106279;1258;67951;-85
2024/05/10 11:19:31;;;;;;;9.90;5.10;;;;;;;24.55;54.08;99614.58;105939;1263;63322;-83
2024/05/10 11:21:59;;;;;;;8.10;4.90;;;;;;;24.37;56.75;99620.21;106063;1261;65248;-83
2024/05/10 11:24:28;;;;;;;7.40;4.10;;;;;;;24.37;56.49;99618.91;105897;1257;62117;-84
2024/05/10 11:26:58;;;;;;;9.10;4.50;;;;;;;24.45;58.71;99613.88;105944;1262;62050;-83